Time;durP1;ratioP1;P1;durP2;ratioP2;P2;SDS_P1;SDS_P2;PMS_P1;PMS_P2;Temp;Humidity;BMP_temperature;BMP_pressure;BME280_temperature;BME280_humidity;BME280_pressure;Samples;Min_cycle;Max_cycle;Signal;HPM_P1;HPM_P2
2021/09/13 00:00:58;;;;;;;5.43;2.30;;;;;;;14.70;100.00;100822.06;5034536;28;20177;-77
2021/09/13 00:03:23;;;;;;;7.40;2.90;;;;;;;14.66;100.00;100828.63;5034534;28;20250;-77
2021/09/13 00:05:49;;;;;;;4.77;2.57;;;;;;;14.61;100.00;100818.19;5017805;28;20658;-77
2021/09/13 00:08:14;;;;;;;4.23;2.60;;;;;;;14.50;100.00;100818.09;5019043;28;20188;-77
2021/09/13 00:10:42;;;;;;;4.93;2.97;;;;;;;14.51;100.00;100830.56;5002444;28;20215;-78
2021/09/13 00:13:08;;;;;;;7.23;2.73;;;;;;;14.50;100.00;100827.97;5035461;28;20195;-77
2021/09/13 00:15:33;;;;;;;3.50;2.70;;;;;;;14.43;100.00;100826.66;5017240;28;20515;-77
2021/09/13 00:17:58;;;;;;;11.33;3.27;;;;;;;14.40;100.00;100825.88;5034907;28;20191;-77
2021/09/13 00:20:23;;;;;;;5.00;3.10;;;;;;;14.40;100.00;100835.75;5016353;28;20578;-77
2021/09/13 00:22:49;;;;;;;5.43;2.90;;;;;;;14.40;100.00;100833.91;5016109;28;20204;-77
2021/09/13 00:25:14;;;;;;;6.77;3.07;;;;;;;14.38;100.00;100825.13;5034378;28;20259;-77
2021/09/13 00:27:39;;;;;;;4.70;2.60;;;;;;;14.36;100.00;100832.41;5017016;28;20200;-77
2021/09/13 00:30:08;;;;;;;6.37;2.90;;;;;;;14.33;100.00;100834.47;5016750;28;20259;-77
2021/09/13 00:32:33;;;;;;;5.47;2.57;;;;;;;14.29;100.00;100832.94;5017805;28;20646;-77
2021/09/13 00:34:59;;;;;;;4.20;2.53;;;;;;;14.29;100.00;100835.63;5000074;28;20226;-77
2021/09/13 00:37:24;;;;;;;5.57;2.30;;;;;;;14.27;100.00;100840.25;5034451;28;20184;-77
2021/09/13 00:39:49;;;;;;;7.80;2.70;;;;;;;14.25;100.00;100834.13;5034691;28;20181;-77
2021/09/13 00:42:15;;;;;;;7.57;2.43;;;;;;;14.27;100.00;100829.50;5034200;28;20180;-77
2021/09/13 00:44:40;;;;;;;3.57;2.70;;;;;;;14.26;100.00;100823.28;5016319;28;20199;-77
2021/09/13 00:47:05;;;;;;;7.93;2.63;;;;;;;14.25;100.00;100828.75;5034413;28;20196;-77
2021/09/13 00:49:31;;;;;;;6.20;2.67;;;;;;;14.18;100.00;100833.69;5016379;28;20214;-77
2021/09/13 00:51:56;;;;;;;7.93;2.63;;;;;;;14.15;100.00;100828.53;5000136;28;20183;-77
2021/09/13 00:54:21;;;;;;;4.23;2.70;;;;;;;14.11;100.00;100828.81;5033811;28;20196;-77
2021/09/13 00:56:47;;;;;;;9.13;2.97;;;;;;;14.08;100.00;100833.44;5016352;28;20183;-77
2021/09/13 00:59:13;;;;;;;5.97;2.50;;;;;;;14.04;100.00;100842.66;5016517;28;20210;-77
2021/09/13 01:01:39;;;;;;;6.13;2.80;;;;;;;14.02;100.00;100844.56;5016057;28;20177;-77
2021/09/13 01:04:04;;;;;;;4.57;2.47;;;;;;;14.01;100.00;100836.63;5034144;28;20192;-77
2021/09/13 01:06:30;;;;;;;8.17;2.67;;;;;;;13.95;100.00;100834.38;5034445;28;20192;-77
2021/09/13 01:08:55;;;;;;;5.47;2.87;;;;;;;13.94;100.00;100832.66;5016364;28;20220;-78
2021/09/13 01:11:21;;;;;;;6.93;2.40;;;;;;;13.95;100.00;100834.38;5016423;28;20190;-78
2021/09/13 01:13:46;;;;;;;6.40;2.67;;;;;;;13.94;100.00;100832.66;5016254;28;20291;-76
2021/09/13 01:16:12;;;;;;;4.97;2.33;;;;;;;13.89;100.00;100830.28;5016910;28;20176;-77
2021/09/13 01:18:37;;;;;;;6.60;2.80;;;;;;;13.87;100.00;100837.56;5016329;28;20176;-76
2021/09/13 01:21:04;;;;;;;5.40;2.40;;;;;;;13.88;100.00;100836.59;5016372;28;20220;-76
2021/09/13 01:23:32;;;;;;;4.73;2.00;;;;;;;13.86;100.00;100832.31;4999401;28;20269;-77
2021/09/13 01:25:57;;;;;;;10.60;2.50;;;;;;;13.84;100.00;100829.72;5000016;28;20710;-76
2021/09/13 01:28:23;;;;;;;7.63;2.60;;;;;;;13.81;100.00;100829.94;5016093;28;20210;-77
2021/09/13 01:30:49;;;;;;;3.57;2.23;;;;;;;13.80;100.00;100833.56;5015438;28;20230;-76
2021/09/13 01:33:14;;;;;;;5.80;2.63;;;;;;;13.79;100.00;100831.84;5015223;28;20670;-77
2021/09/13 01:35:39;;;;;;;3.17;2.13;;;;;;;13.72;100.00;100842.09;5031064;28;20546;-77
2021/09/13 01:38:05;;;;;;;5.80;2.30;;;;;;;13.67;100.00;100833.50;5036712;28;20184;-77
2021/09/13 01:40:30;;;;;;;6.93;2.40;;;;;;;13.67;100.00;100846.06;5015517;28;20184;-77
2021/09/13 01:43:00;;;;;;;4.53;2.40;;;;;;;13.69;100.00;100841.44;5015429;28;20207;-76
2021/09/13 01:45:25;;;;;;;6.20;2.30;;;;;;;13.66;100.00;100842.50;5000253;28;20259;-77
2021/09/13 01:47:51;;;;;;;6.23;2.57;;;;;;;13.67;100.00;100846.06;5033931;28;20267;-77
2021/09/13 01:50:16;;;;;;;8.67;2.53;;;;;;;13.70;100.00;100844.03;5015653;28;20172;-77
2021/09/13 01:52:42;;;;;;;5.20;2.80;;;;;;;13.66;100.00;100847.00;5015501;28;20196;-77
2021/09/13 01:55:07;;;;;;;7.10;2.50;;;;;;;13.70;100.00;100853.91;5033214;28;20230;-76
2021/09/13 01:57:33;;;;;;;5.00;2.43;;;;;;;13.67;100.00;100848.72;4999159;28;20206;-76
2021/09/13 01:59:58;;;;;;;3.93;2.53;;;;;;;13.66;100.00;100852.38;5015638;28;20187;-77
2021/09/13 02:02:23;;;;;;;8.03;2.77;;;;;;;13.61;100.00;100860.72;5033374;28;20203;-77
2021/09/13 02:04:48;;;;;;;6.33;2.60;;;;;;;13.60;100.00;100853.63;5033693;28;20199;-77
2021/09/13 02:07:14;;;;;;;7.37;2.83;;;;;;;13.58;100.00;100854.72;5033211;28;20196;-77
2021/09/13 02:09:39;;;;;;;4.23;2.53;;;;;;;13.57;100.00;100858.34;5015448;28;20198;-77
2021/09/13 02:12:05;;;;;;;4.47;3.00;;;;;;;13.51;100.00;100862.28;5015444;28;20242;-77
2021/09/13 02:14:30;;;;;;;5.47;2.90;;;;;;;13.52;100.00;100866.69;5016000;28;20180;-77
2021/09/13 02:16:56;;;;;;;5.13;3.07;;;;;;;13.52;100.00;100860.47;5035100;28;20224;-77
2021/09/13 02:19:21;;;;;;;9.97;2.90;;;;;;;13.56;100.00;100864.66;5016185;28;20216;-77
2021/09/13 02:21:46;;;;;;;9.50;3.10;;;;;;;13.51;100.00;100867.66;5017969;28;20192;-77
2021/09/13 02:24:12;;;;;;;7.57;3.77;;;;;;;13.50;100.00;100871.28;5001376;28;20721;-77
2021/09/13 02:26:37;;;;;;;6.33;3.37;;;;;;;13.51;100.00;100873.00;5015397;28;20253;-77
2021/09/13 02:29:02;;;;;;;4.83;3.27;;;;;;;13.51;100.00;100874.84;5032819;28;20266;-77
2021/09/13 02:31:28;;;;;;;9.17;3.90;;;;;;;13.50;100.00;100878.47;5015224;28;20176;-76
2021/09/13 02:33:53;;;;;;;9.13;3.77;;;;;;;13.50;100.00;100878.47;5014868;28;20272;-76
2021/09/13 02:36:18;;;;;;;8.23;4.30;;;;;;;13.51;100.00;100877.53;5032896;28;20630;-77
2021/09/13 02:38:44;;;;;;;6.77;4.23;;;;;;;13.50;100.00;100873.97;5032713;28;20184;-76
2021/09/13 02:41:09;;;;;;;7.00;3.83;;;;;;;13.49;100.00;100869.56;5032294;28;20554;-76
2021/09/13 02:43:34;;;;;;;9.57;4.50;;;;;;;13.44;100.00;100879.75;4998121;28;20211;-76
2021/09/13 02:45:59;;;;;;;13.13;5.33;;;;;;;13.43;100.00;100875.34;5035594;28;20185;-76
2021/09/13 02:48:25;;;;;;;11.70;4.77;;;;;;;13.42;100.00;100882.53;5002445;28;20184;-76
2021/09/13 02:50:50;;;;;;;9.60;4.93;;;;;;;13.45;100.00;100882.31;5019141;28;20184;-76
2021/09/13 02:53:15;;;;;;;8.27;4.47;;;;;;;13.37;100.00;100876.56;5001947;28;20731;-76
2021/09/13 02:55:41;;;;;;;7.00;4.47;;;;;;;13.38;100.00;100880.09;5036231;28;20168;-76
2021/09/13 02:58:06;;;;;;;11.17;4.87;;;;;;;13.39;100.00;100877.34;5018865;28;20180;-77
2021/09/13 03:00:31;;;;;;;10.60;5.27;;;;;;;13.36;100.00;100872.16;5035993;28;20172;-76
2021/09/13 03:02:56;;;;;;;7.27;5.47;;;;;;;13.35;100.00;100878.47;5036291;28;20543;-77
2021/09/13 03:05:22;;;;;;;10.07;5.53;;;;;;;13.39;100.00;100876.50;5036201;28;20199;-77
2021/09/13 03:07:47;;;;;;;9.17;5.47;;;;;;;13.32;100.00;100880.50;5018909;28;20256;-77
2021/09/13 03:10:13;;;;;;;10.77;5.50;;;;;;;13.34;100.00;100887.47;5018273;28;20176;-77
2021/09/13 03:12:39;;;;;;;9.67;5.37;;;;;;;13.38;100.00;100889.03;5018097;28;20191;-77
2021/09/13 03:15:07;;;;;;;18.73;6.63;;;;;;;13.41;100.00;100880.78;5001944;28;20213;-77
2021/09/13 03:17:32;;;;;;;8.27;5.80;;;;;;;13.43;100.00;100888.75;5001889;28;20183;-77
2021/09/13 03:19:57;;;;;;;10.83;5.47;;;;;;;13.42;100.00;100884.34;5035706;28;20226;-77
2021/09/13 03:22:23;;;;;;;9.53;5.80;;;;;;;13.42;100.00;100876.28;5018195;28;20200;-76
2021/09/13 03:24:48;;;;;;;16.73;6.20;;;;;;;13.43;100.00;100873.50;5018291;28;20622;-77
2021/09/13 03:27:13;;;;;;;9.80;7.03;;;;;;;13.43;100.00;100873.50;5001810;28;20196;-77
2021/09/13 03:29:39;;;;;;;12.40;5.70;;;;;;;13.39;100.00;100877.34;5036133;28;20181;-77
2021/09/13 03:32:04;;;;;;;12.57;5.90;;;;;;;13.40;100.00;100873.72;5018535;28;20184;-78
2021/09/13 03:34:29;;;;;;;12.80;6.60;;;;;;;13.41;100.00;100882.63;5002075;28;20669;-76
2021/09/13 03:36:57;;;;;;;9.50;6.03;;;;;;;13.43;100.00;100881.56;5036939;28;20180;-76
2021/09/13 03:39:22;;;;;;;12.00;6.60;;;;;;;13.47;100.00;100881.34;5028242;28;20186;-77
2021/09/13 03:41:47;;;;;;;12.53;6.73;;;;;;;13.50;100.00;100879.34;5039573;28;20224;-76
2021/09/13 03:44:13;;;;;;;16.50;7.07;;;;;;;13.56;100.00;100878.09;5039044;28;20193;-76
2021/09/13 03:46:38;;;;;;;9.23;5.37;;;;;;;13.61;100.00;100884.00;5040412;28;20652;-76
2021/09/13 03:49:03;;;;;;;9.47;5.77;;;;;;;13.67;100.00;100887.16;5040597;28;20184;-76
2021/09/13 03:51:29;;;;;;;9.20;5.40;;;;;;;13.71;100.00;100890.47;5034837;28;20183;-76
2021/09/13 03:53:54;;;;;;;15.07;5.80;;;;;;;13.75;100.00;100881.28;5018341;28;20196;-77
2021/09/13 03:56:19;;;;;;;8.97;5.23;;;;;;;13.79;100.00;100884.66;5018017;28;20169;-77
2021/09/13 03:58:44;;;;;;;8.33;4.70;;;;;;;13.84;100.00;100886.06;5036535;28;20708;-77
2021/09/13 04:01:10;;;;;;;11.70;4.87;;;;;;;13.82;100.00;100890.66;5018019;28;20168;-77
2021/09/13 04:03:44;;;;;;;7.30;4.90;;;;;;;13.86;100.00;100886.81;5035944;28;20204;-77
2021/09/13 04:06:18;;;;;;;8.03;5.00;;;;;;;13.89;100.00;100891.97;5035268;28;20188;-77
2021/09/13 04:11:53;;;;;;;10.27;5.30;;;;;;;13.98;100.00;100891.38;5001368;28;20192;-76
2021/09/13 04:14:19;;;;;;;6.67;4.60;;;;;;;14.02;100.00;100886.66;5017813;28;20278;-76
2021/09/13 04:16:44;;;;;;;11.47;4.80;;;;;;;14.01;100.00;100888.47;5017770;28;20699;-78
2021/09/13 04:19:10;;;;;;;7.97;4.17;;;;;;;14.01;100.00;100896.53;5019211;28;20185;-76
2021/09/13 04:21:35;;;;;;;10.30;4.27;;;;;;;14.05;100.00;100892.69;5018695;28;20187;-76
2021/09/13 04:24:00;;;;;;;8.10;4.47;;;;;;;14.11;100.00;100893.22;5017415;28;20251;-77
2021/09/13 04:26:26;;;;;;;5.97;4.07;;;;;;;14.08;100.00;100878.19;5017343;28;20192;-76
2021/09/13 04:28:51;;;;;;;6.93;4.53;;;;;;;14.15;100.00;100890.25;5018314;28;20177;-78
2021/09/13 04:31:17;;;;;;;10.60;4.47;;;;;;;14.13;100.00;100884.13;5036733;28;20192;-77
2021/09/13 04:33:42;;;;;;;11.13;4.50;;;;;;;14.17;100.00;100890.16;5042870;28;20196;-77
2021/09/13 04:36:07;;;;;;;8.97;4.20;;;;;;;14.18;100.00;100895.44;5025370;28;20222;-76
2021/09/13 04:38:33;;;;;;;7.20;4.00;;;;;;;14.18;100.00;100892.75;5007224;28;20199;-77
2021/09/13 04:40:58;;;;;;;7.20;3.60;;;;;;;14.22;100.00;100882.66;5039928;28;20665;-77
2021/09/13 04:43:23;;;;;;;10.33;3.87;;;;;;;14.20;100.00;100889.94;5035338;28;20204;-78
2021/09/13 04:45:48;;;;;;;11.40;4.07;;;;;;;14.24;100.00;100880.72;5018557;28;20196;-77
2021/09/13 04:48:14;;;;;;;5.10;4.07;;;;;;;14.29;100.00;100879.44;5039322;28;20180;-77
2021/09/13 04:50:39;;;;;;;7.27;4.00;;;;;;;14.31;100.00;100885.56;5030104;28;20594;-77
2021/09/13 04:53:04;;;;;;;13.00;4.30;;;;;;;14.21;100.00;100883.63;5017845;28;20559;-77
2021/09/13 04:55:30;;;;;;;7.73;3.70;;;;;;;14.26;100.00;100889.53;5037552;28;20203;-78
2021/09/13 04:57:55;;;;;;;14.43;4.50;;;;;;;14.36;100.00;100887.94;5038901;28;20176;-77
2021/09/13 05:00:21;;;;;;;8.97;3.63;;;;;;;14.35;100.00;100878.16;5035454;28;20226;-77
2021/09/13 05:02:47;;;;;;;8.20;3.90;;;;;;;14.30;100.00;100881.16;5036658;28;20193;-78
2021/09/13 05:05:13;;;;;;;6.33;3.20;;;;;;;14.33;100.00;100875.59;5019844;28;20184;-77
2021/09/13 05:07:38;;;;;;;6.83;3.40;;;;;;;14.38;100.00;100884.19;5016572;28;20266;-76
2021/09/13 05:10:04;;;;;;;8.80;3.60;;;;;;;14.42;100.00;100879.47;5018337;28;20212;-77
2021/09/13 05:12:29;;;;;;;8.83;4.00;;;;;;;14.43;100.00;100885.72;5017130;28;20697;-77
2021/09/13 05:14:54;;;;;;;7.43;3.73;;;;;;;14.35;100.00;100879.03;5035009;28;20576;-77
2021/09/13 05:17:20;;;;;;;11.23;3.80;;;;;;;14.43;100.00;100873.16;5034301;28;20176;-77
2021/09/13 05:19:45;;;;;;;9.23;3.80;;;;;;;14.39;100.00;100887.72;5001769;28;20195;-77
2021/09/13 05:22:10;;;;;;;7.13;4.10;;;;;;;14.38;100.00;100888.69;5019689;28;20236;-77
2021/09/13 05:24:36;;;;;;;11.27;4.33;;;;;;;14.41;100.00;100891.16;5038187;23;20228;-67
2021/09/13 05:27:01;;;;;;;18.67;4.37;;;;;;;14.47;100.00;100896.16;5014017;28;20207;-68
2021/09/13 05:29:26;;;;;;;8.67;3.60;;;;;;;14.50;100.00;100895.13;4996136;28;20181;-67
2021/09/13 05:31:52;;;;;;;8.57;4.30;;;;;;;14.49;100.00;100894.22;5013847;28;20187;-68
2021/09/13 05:34:18;;;;;;;7.93;3.80;;;;;;;14.50;100.00;100885.22;4995868;28;20296;-67
2021/09/13 05:36:43;;;;;;;10.53;4.37;;;;;;;14.57;100.00;100905.31;5013643;28;20265;-68
2021/09/13 05:39:09;;;;;;;8.80;4.67;;;;;;;14.57;100.00;100896.41;5013604;28;20208;-68
2021/09/13 05:41:34;;;;;;;8.30;4.40;;;;;;;14.65;100.00;100892.22;5013800;28;20598;-69
2021/09/13 05:43:59;;;;;;;7.43;4.10;;;;;;;14.68;100.00;100893.84;4996489;28;20193;-68
2021/09/13 05:46:24;;;;;;;9.30;4.37;;;;;;;14.69;100.00;100898.25;5014231;28;20209;-70
2021/09/13 05:48:50;;;;;;;14.43;4.47;;;;;;;14.67;100.00;100901.03;5013722;28;20551;-67
2021/09/13 05:51:15;;;;;;;8.70;4.60;;;;;;;14.68;100.00;100902.75;4997096;28;20173;-68
2021/09/13 05:53:40;;;;;;;7.37;4.23;;;;;;;14.70;100.00;100906.19;5013580;28;20790;-66
2021/09/13 05:56:06;;;;;;;10.33;4.27;;;;;;;14.73;100.00;100910.50;4995860;28;20303;-67
2021/09/13 05:58:31;;;;;;;9.23;4.43;;;;;;;14.83;100.00;100910.72;5013726;28;20172;-67
2021/09/13 06:00:56;;;;;;;9.57;4.67;;;;;;;14.88;100.00;100911.28;4995973;28;20177;-67
2021/09/13 06:03:21;;;;;;;8.87;4.50;;;;;;;14.96;100.00;100904.41;5013212;28;20694;-67
2021/09/13 06:05:47;;;;;;;10.93;4.03;;;;;;;14.98;100.00;100910.53;5013358;28;20220;-68
2021/09/13 06:08:12;;;;;;;10.50;4.20;;;;;;;15.02;100.00;100905.78;5013112;28;20184;-69
2021/09/13 06:10:37;;;;;;;5.70;3.83;;;;;;;14.98;100.00;100905.16;5013268;28;20173;-68
2021/09/13 06:13:03;;;;;;;12.67;3.80;;;;;;;15.05;100.00;100904.72;5013535;28;20271;-67
2021/09/13 06:15:28;;;;;;;7.13;3.90;;;;;;;15.07;100.00;100906.31;5012955;28;20169;-67
2021/09/13 06:17:53;;;;;;;10.00;4.20;;;;;;;15.09;100.00;100923.19;5013152;28;20176;-69
2021/09/13 06:20:20;;;;;;;9.03;4.10;;;;;;;15.06;100.00;100928.78;5017713;28;20173;-69
2021/09/13 06:22:45;;;;;;;10.07;4.30;;;;;;;15.16;100.00;100920.94;5017270;28;20184;-70
2021/09/13 06:25:11;;;;;;;6.70;3.97;;;;;;;15.18;100.00;100919.84;5017415;28;20165;-68
2021/09/13 06:27:36;;;;;;;6.93;3.67;;;;;;;15.20;100.00;100931.38;5016805;28;20193;-68
2021/09/13 06:30:01;;;;;;;4.70;3.70;;;;;;;15.25;100.00;100929.25;5017825;28;20196;-68
2021/09/13 06:32:27;;;;;;;6.77;3.57;;;;;;;15.31;100.00;100930.63;5017458;28;20169;-67
2021/09/13 06:34:52;;;;;;;5.67;3.87;;;;;;;15.36;100.00;100935.66;4999863;28;20208;-68
2021/09/13 06:37:20;;;;;;;9.07;3.73;;;;;;;15.35;100.00;100928.56;5017077;28;20259;-69
2021/09/13 06:39:46;;;;;;;7.23;3.47;;;;;;;15.39;100.00;100933.63;4999905;28;20542;-67
2021/09/13 06:42:12;;;;;;;8.87;4.60;;;;;;;15.48;100.00;100937.47;4999736;28;20222;-67
2021/09/13 06:44:37;;;;;;;8.93;4.13;;;;;;;15.49;100.00;100939.19;4998981;28;20193;-67
2021/09/13 06:49:28;;;;;;;6.10;3.87;;;;;;;15.62;100.00;100940.09;4999395;28;20255;-69
2021/09/13 06:51:54;;;;;;;5.87;3.37;;;;;;;15.66;100.00;100943.41;4983427;28;20237;-68
2021/09/13 06:54:19;;;;;;;5.83;3.10;;;;;;;15.70;100.00;100950.28;5016826;28;20197;-68
2021/09/13 06:56:45;;;;;;;6.53;3.70;;;;;;;15.68;100.00;100949.53;5016409;28;20256;-69
2021/09/13 06:59:12;;;;;;;4.73;3.10;;;;;;;15.69;100.00;100945.88;5016852;28;20554;-68
2021/09/13 07:01:38;;;;;;;5.97;3.50;;;;;;;15.67;100.00;100951.38;5016956;28;20263;-68
2021/09/13 07:04:03;;;;;;;5.20;2.97;;;;;;;15.67;100.00;100951.38;5016593;28;20189;-68
2021/09/13 07:06:28;;;;;;;7.07;3.87;;;;;;;15.61;100.00;100959.88;4999367;28;20197;-67
2021/09/13 07:08:55;;;;;;;9.70;3.50;;;;;;;15.66;100.00;100962.25;5016262;28;20260;-67
2021/09/13 07:11:20;;;;;;;10.13;3.20;;;;;;;15.62;100.00;100958.91;4998532;28;20172;-67
2021/09/13 07:13:46;;;;;;;6.90;3.13;;;;;;;15.64;100.00;100965.03;5016081;28;20208;-68
2021/09/13 07:16:11;;;;;;;3.90;2.70;;;;;;;15.70;100.00;100967.28;4998593;28;20640;-69
2021/09/13 07:18:36;;;;;;;3.83;2.30;;;;;;;15.65;100.00;100966.75;5016207;28;20176;-67
2021/09/13 07:21:02;;;;;;;8.80;2.93;;;;;;;15.74;100.00;100979.56;5016655;28;20184;-68
2021/09/13 07:23:27;;;;;;;4.80;2.60;;;;;;;15.79;100.00;100976.53;4998378;28;20617;-68
2021/09/13 07:25:53;;;;;;;3.30;2.43;;;;;;;15.79;100.00;100971.13;4998576;28;20204;-67
2021/09/13 07:28:20;;;;;;;6.63;2.53;;;;;;;15.74;100.00;100976.84;5016197;28;20177;-67
2021/09/13 07:30:45;;;;;;;4.57;2.00;;;;;;;15.67;100.00;100991.72;5015398;28;20177;-68
2021/09/13 07:33:11;;;;;;;4.40;2.03;;;;;;;15.47;100.00;100981.47;4998526;28;20251;-68
2021/09/13 07:35:36;;;;;;;6.40;2.57;;;;;;;15.75;100.00;100965.13;5016344;28;20174;-67
2021/09/13 07:38:02;;;;;;;5.17;2.40;;;;;;;15.91;100.00;100981.88;5016055;28;20177;-69
2021/09/13 07:40:27;;;;;;;3.70;1.53;;;;;;;16.00;100.00;100979.50;4998414;28;20192;-67
2021/09/13 07:42:52;;;;;;;4.53;1.87;;;;;;;16.07;99.84;100987.00;5015400;28;20247;-68
2021/09/13 07:45:18;;;;;;;3.43;1.60;;;;;;;16.06;99.41;100989.81;5015019;28;20177;-68
2021/09/13 07:47:43;;;;;;;3.70;1.37;;;;;;;16.26;98.64;100992.75;5015537;28;20201;-67
2021/09/13 07:50:09;;;;;;;6.67;1.63;;;;;;;16.58;96.50;100990.34;4997784;28;20578;-67
2021/09/13 07:52:34;;;;;;;2.40;1.20;;;;;;;16.78;94.32;101001.50;4997685;28;20185;-68
2021/09/13 07:54:59;;;;;;;4.10;1.67;;;;;;;16.94;92.39;101003.88;5015292;28;20295;-67
2021/09/13 07:57:25;;;;;;;4.03;1.20;;;;;;;16.53;92.33;100997.91;4981461;28;20223;-67
2021/09/13 07:59:50;;;;;;;5.37;1.97;;;;;;;16.32;93.47;100995.94;5015125;28;20165;-67
2021/09/13 08:02:16;;;;;;;5.77;1.50;;;;;;;16.33;94.85;100998.53;5015284;28;20180;-67
2021/09/13 08:04:41;;;;;;;3.87;1.50;;;;;;;16.38;93.97;101011.69;4997539;28;20189;-68
2021/09/13 08:07:07;;;;;;;4.13;1.60;;;;;;;16.42;94.05;101000.56;5014954;28;20197;-67
2021/09/13 08:09:32;;;;;;;1.97;1.30;;;;;;;16.55;93.41;101014.81;5015067;28;20177;-67
2021/09/13 08:11:58;;;;;;;6.70;2.10;;;;;;;16.59;92.77;101012.75;5014932;28;20219;-67
2021/09/13 08:14:23;;;;;;;2.50;1.40;;;;;;;16.26;94.91;101008.03;5014808;28;20686;-67
2021/09/13 08:16:49;;;;;;;3.90;1.83;;;;;;;16.47;93.67;101006.47;5014935;28;20169;-66
2021/09/13 08:19:14;;;;;;;4.47;2.00;;;;;;;16.68;92.14;101005.84;5015379;28;20262;-68
2021/09/13 08:21:41;;;;;;;5.23;2.63;;;;;;;16.80;90.99;101015.72;5014619;28;20169;-68
2021/09/13 08:24:07;;;;;;;4.87;1.30;;;;;;;16.63;88.13;101006.16;4997593;28;20228;-67
2021/09/13 08:26:32;;;;;;;2.97;1.00;;;;;;;16.60;88.28;101011.78;5015124;28;20682;-67
2021/09/13 08:28:58;;;;;;;4.77;1.00;;;;;;;16.67;87.12;101004.13;4997460;28;20287;-66
2021/09/13 08:31:23;;;;;;;4.53;1.10;;;;;;;16.70;86.64;101014.66;4997431;28;20520;-66
2021/09/13 08:33:48;;;;;;;2.73;1.20;;;;;;;16.89;84.52;101006.91;4996788;28;20205;-66
2021/09/13 08:36:14;;;;;;;2.17;0.93;;;;;;;16.84;84.24;101012.66;5014548;28;20543;-69
2021/09/13 08:38:39;;;;;;;5.03;1.20;;;;;;;16.67;85.67;101021.16;5014489;28;20173;-66
2021/09/13 08:41:04;;;;;;;3.33;0.80;;;;;;;16.66;85.61;101019.44;5015344;28;20535;-67
2021/09/13 08:43:30;;;;;;;1.47;0.90;;;;;;;16.37;87.40;101031.50;5013656;28;20671;-67
2021/09/13 08:45:59;;;;;;;4.03;1.13;;;;;;;15.79;93.05;101039.28;5014345;28;20288;-67
2021/09/13 08:48:31;;;;;;;5.70;1.20;;;;;;;15.52;98.47;101049.25;5014339;28;20176;-67
2021/09/13 08:51:06;;;;;;;5.13;1.27;;;;;;;15.19;100.00;101058.69;5014331;28;20153;-66
2021/09/13 08:53:35;;;;;;;2.43;1.20;;;;;;;14.51;100.00;101060.66;5014514;28;20574;-67
2021/09/13 08:56:02;;;;;;;6.27;1.60;;;;;;;14.44;100.00;101072.75;4997286;28;20172;-67
2021/09/13 08:58:32;;;;;;;5.43;1.43;;;;;;;14.66;100.00;101082.00;4996366;28;20169;-67
2021/09/13 09:00:57;;;;;;;2.50;1.10;;;;;;;14.36;100.00;101081.25;4997272;28;20181;-67
2021/09/13 09:03:23;;;;;;;4.63;1.33;;;;;;;14.41;100.00;101087.19;4996257;28;20239;-67
2021/09/13 09:05:50;;;;;;;3.47;1.13;;;;;;;14.31;100.00;101086.06;5014031;28;20188;-67
2021/09/13 09:08:36;;;;;;;3.90;1.20;;;;;;;14.17;100.00;101099.53;5014111;28;20200;-67
2021/09/13 09:11:03;;;;;;;4.57;1.40;;;;;;;13.89;100.00;101106.63;5013997;28;20244;-67
2021/09/13 09:13:43;;;;;;;4.43;1.27;;;;;;;13.79;100.00;101116.22;5013947;28;20220;-67
2021/09/13 09:16:10;;;;;;;10.20;1.87;;;;;;;13.70;100.00;101127.47;5014762;28;20153;-67
2021/09/13 09:18:38;;;;;;;3.83;1.60;;;;;;;13.48;100.00;101130.63;5012654;28;20204;-67
2021/09/13 09:21:04;;;;;;;7.13;1.63;;;;;;;13.48;100.00;101133.31;4997114;28;20173;-67
2021/09/13 09:23:29;;;;;;;4.80;1.57;;;;;;;13.34;100.00;101138.59;4996076;28;20617;-67
2021/09/13 09:26:10;;;;;;;3.03;1.20;;;;;;;13.17;100.00;101142.28;4996766;28;20296;-68
2021/09/13 09:28:35;;;;;;;6.37;1.60;;;;;;;13.22;100.00;101145.56;4996846;28;20169;-67
2021/09/13 09:31:00;;;;;;;8.43;1.83;;;;;;;13.33;100.00;101139.56;4996054;28;20188;-67
2021/09/13 09:33:26;;;;;;;7.33;1.60;;;;;;;13.57;100.00;101139.94;4995720;28;20614;-67
2021/09/13 09:35:56;;;;;;;8.50;1.80;;;;;;;13.71;100.00;101139.94;5013755;28;20720;-67
2021/09/13 09:38:34;;;;;;;7.03;1.57;;;;;;;13.87;100.00;101137.19;5013667;28;20193;-68
2021/09/13 09:41:05;;;;;;;6.50;1.73;;;;;;;13.98;100.00;101135.56;5013865;28;20173;-67
2021/09/13 09:43:31;;;;;;;3.40;1.23;;;;;;;14.05;100.00;101127.97;5014654;28;20188;-68
2021/09/13 09:45:58;;;;;;;3.53;1.60;;;;;;;14.12;100.00;101126.63;5013721;28;20666;-68
2021/09/13 09:48:32;;;;;;;8.70;1.60;;;;;;;14.27;100.00;101124.81;5013874;28;20195;-67
2021/09/13 09:50:58;;;;;;;6.83;1.33;;;;;;;14.45;100.00;101120.13;5013936;28;20164;-68
2021/09/13 09:53:29;;;;;;;6.17;1.33;;;;;;;14.73;100.00;101119.19;4996591;28;20242;-67
2021/09/13 09:56:09;;;;;;;7.13;1.67;;;;;;;15.07;98.46;101113.31;5014132;28;20513;-67
2021/09/13 09:58:34;;;;;;;6.47;1.80;;;;;;;15.43;93.73;101119.84;4996202;28;20231;-67
2021/09/13 10:01:00;;;;;;;7.60;1.57;;;;;;;15.63;91.05;101122.06;4996495;28;20177;-67
2021/09/13 10:03:30;;;;;;;7.67;1.63;;;;;;;15.76;89.66;101117.53;5013848;28;20196;-67
2021/09/13 10:05:55;;;;;;;4.87;1.60;;;;;;;15.80;86.49;101100.22;5013579;28;20200;-66
2021/09/13 10:08:22;;;;;;;6.17;1.80;;;;;;;15.89;86.29;101110.31;4996161;28;20176;-68
2021/09/13 10:10:47;;;;;;;9.90;2.07;;;;;;;16.10;84.03;101094.47;5013469;28;20730;-66
2021/09/13 10:13:13;;;;;;;5.93;1.63;;;;;;;16.43;81.53;101085.78;4996144;28;20224;-66
2021/09/13 10:15:38;;;;;;;6.30;1.53;;;;;;;16.71;80.09;101086.44;5013198;28;20173;-67
2021/09/13 10:18:04;;;;;;;5.60;1.40;;;;;;;17.14;79.15;101086.81;4995651;28;20231;-67
2021/09/13 10:20:29;;;;;;;8.90;1.53;;;;;;;17.27;78.59;101092.09;4979308;28;20209;-67
2021/09/13 10:22:55;;;;;;;4.23;1.20;;;;;;;17.54;77.64;101089.97;4995634;28;20633;-67
2021/09/13 10:25:21;;;;;;;9.20;2.00;;;;;;;17.70;76.17;101085.13;4995512;28;20161;-67
2021/09/13 10:27:47;;;;;;;9.37;1.60;;;;;;;17.61;75.97;101080.41;5013207;28;20205;-67
2021/09/13 10:30:25;;;;;;;6.53;2.03;;;;;;;16.84;78.31;101085.44;5015994;28;20169;-66
2021/09/13 10:33:10;;;;;;;6.57;1.50;;;;;;;17.95;75.83;101083.19;5014281;28;20173;-67
2021/09/13 10:35:52;;;;;;;8.10;1.57;;;;;;;18.03;73.96;101057.28;5013381;28;20619;-67
2021/09/13 10:38:40;;;;;;;6.83;1.70;;;;;;;18.51;73.36;101064.22;4995241;28;20671;-67
2021/09/13 10:41:05;;;;;;;6.07;1.60;;;;;;;18.81;70.91;101048.19;4995616;28;20165;-67
2021/09/13 10:43:31;;;;;;;7.57;1.70;;;;;;;19.17;71.09;101067.69;5013051;28;20671;-67
2021/09/13 10:45:56;;;;;;;4.77;1.70;;;;;;;19.62;69.63;101060.19;5012995;28;20207;-68
2021/09/13 10:48:22;;;;;;;7.83;1.90;;;;;;;18.29;71.52;101048.91;5012886;28;20587;-67
2021/09/13 10:50:49;;;;;;;7.37;1.97;;;;;;;18.67;70.20;101045.78;4995483;28;20169;-68
2021/09/13 10:53:17;;;;;;;7.30;1.83;;;;;;;18.03;68.18;100995.16;5012733;28;20196;-67
2021/09/13 10:55:46;;;;;;;7.50;1.70;;;;;;;18.17;68.63;101022.88;4995322;28;20199;-68
2021/09/13 10:58:16;;;;;;;4.77;1.73;;;;;;;18.74;67.24;101023.50;4995300;28;20183;-68
2021/09/13 11:00:44;;;;;;;8.43;1.70;;;;;;;19.04;65.74;101011.94;5013097;28;20539;-68
2021/09/13 11:03:22;;;;;;;5.53;1.80;;;;;;;18.42;67.77;101036.09;4994987;28;20197;-67
2021/09/13 11:06:05;;;;;;;8.67;1.67;;;;;;;18.69;66.32;101014.06;5013839;28;20725;-67
2021/09/13 11:08:38;;;;;;;6.97;1.80;;;;;;;18.08;67.82;101024.50;5016286;28;20196;-68
2021/09/13 11:11:17;;;;;;;6.90;2.13;;;;;;;17.79;69.43;101045.72;5016928;28;20174;-67
2021/09/13 11:13:44;;;;;;;9.80;2.00;;;;;;;17.96;69.78;101060.59;5016271;28;20188;-68
2021/09/13 11:16:10;;;;;;;9.40;2.90;;;;;;;18.65;66.70;101028.84;5016295;28;20173;-68
2021/09/13 11:18:42;;;;;;;10.63;2.20;;;;;;;17.81;68.99;101047.31;5015913;28;20693;-67